createdAt,value
2022-10-30T00:01:55.547Z,100809.89
2022-10-30T00:04:26.429Z,100806.24
2022-10-30T00:06:57.076Z,100801.99
2022-10-30T00:09:27.675Z,100800.35
2022-10-30T00:11:58.418Z,100802.21
2022-10-30T00:14:29.066Z,100801.88
2022-10-30T00:16:59.768Z,100804.11
2022-10-30T00:19:30.468Z,100796.72
2022-10-30T00:24:32.380Z,100799.38
2022-10-30T00:27:03.181Z,100797.13
2022-10-30T00:29:33.819Z,100793.54
2022-10-30T00:32:04.820Z,100791.93
2022-10-30T00:34:35.442Z,100786.32
2022-10-30T00:37:06.341Z,100783.06
2022-10-30T00:39:37.121Z,100780.64
2022-10-30T00:42:09.902Z,100779.97
2022-10-30T00:44:46.383Z,100782.07
2022-10-30T00:47:21.366Z,100781.63
2022-10-30T00:49:56.778Z,100783.48
2022-10-30T00:52:30.398Z,100779.62
2022-10-30T00:55:07.166Z,100775.42
2022-10-30T00:57:39.714Z,100776.75
2022-10-30T01:00:14.567Z,100776.59
2022-10-30T01:02:46.111Z,100769.02
2022-10-30T01:05:19.738Z,100764.27
2022-10-30T01:07:50.608Z,100759.17
2022-10-30T01:10:22.396Z,100757.71
2022-10-30T01:12:54.769Z,100759.12
2022-10-30T01:15:27.730Z,100754.41
2022-10-30T01:18:11.207Z,100753.57
2022-10-30T01:21:05.010Z,100752.14
2022-10-30T01:23:47.857Z,100746.69
2022-10-30T01:26:27.321Z,100748.70
2022-10-30T01:29:21.495Z,100749.72
2022-10-30T01:32:10.281Z,100751.02
2022-10-30T01:34:48.610Z,100749.59
2022-10-30T01:37:26.262Z,100744.70
2022-10-30T01:39:56.963Z,100743.20
2022-10-30T01:42:47.305Z,100740.75
2022-10-30T01:45:27.775Z,100736.60
2022-10-30T01:48:28.386Z,100731.58
2022-10-30T01:51:03.699Z,100725.90
2022-10-30T01:53:45.711Z,100726.81
2022-10-30T01:56:27.839Z,100728.17
2022-10-30T01:59:11.631Z,100731.00
2022-10-30T02:01:41.122Z,100736.02
2022-10-30T02:04:14.547Z,100737.39
2022-10-30T02:06:46.209Z,100733.88
2022-10-30T02:09:19.055Z,100735.89
2022-10-30T02:11:53.722Z,100734.63
2022-10-30T02:14:31.133Z,100733.46
2022-10-30T02:17:05.303Z,100731.73
2022-10-30T02:19:36.685Z,100730.30
2022-10-30T02:22:07.889Z,100726.86
2022-10-30T02:24:38.759Z,100726.52
2022-10-30T02:27:11.211Z,100718.66
2022-10-30T02:29:44.194Z,100726.69
2022-10-30T02:32:14.897Z,100723.98
2022-10-30T02:34:46.292Z,100720.27
2022-10-30T02:37:17.852Z,100720.92
2022-10-30T02:39:48.826Z,100720.96
2022-10-30T02:42:19.754Z,100720.13
2022-10-30T02:44:50.459Z,100720.39
2022-10-30T02:47:21.990Z,100716.96
2022-10-30T02:49:53.967Z,100710.08
2022-10-30T02:52:24.596Z,100711.30
2022-10-30T02:54:55.358Z,100709.88
2022-10-30T02:57:26.443Z,100712.55
2022-10-30T02:59:57.196Z,100713.23
2022-10-30T03:02:27.808Z,100717.84
2022-10-30T03:04:58.507Z,100714.52
2022-10-30T03:07:29.645Z,100720.36
2022-10-30T03:10:00.329Z,100717.50
2022-10-30T03:12:30.978Z,100717.90
2022-10-30T03:15:01.643Z,100713.95
2022-10-30T03:17:32.911Z,100712.84
2022-10-30T03:20:03.760Z,100708.19
2022-10-30T03:22:34.726Z,100710.47
2022-10-30T03:25:05.972Z,100720.50
2022-10-30T03:27:37.212Z,100720.98
2022-10-30T03:30:10.224Z,100717.16
2022-10-30T03:32:40.875Z,100720.80
2022-10-30T03:35:11.938Z,100716.05
2022-10-30T03:37:42.547Z,100716.70
2022-10-30T03:40:14.802Z,100716.46
2022-10-30T03:42:45.576Z,100716.56
2022-10-30T03:45:16.332Z,100721.10
2022-10-30T03:47:47.356Z,100723.77
2022-10-30T03:50:18.164Z,100721.27
2022-10-30T03:52:49.475Z,100723.40
2022-10-30T03:55:20.381Z,100727.36
2022-10-30T03:57:51.103Z,100724.08
2022-10-30T04:00:23.017Z,100722.51
2022-10-30T04:03:01.275Z,100718.01
2022-10-30T04:05:33.731Z,100716.05
2022-10-30T04:08:08.994Z,100716.40
2022-10-30T04:10:42.907Z,100716.41
2022-10-30T04:13:16.457Z,100715.59
2022-10-30T04:15:56.115Z,100704.02
2022-10-30T04:18:28.989Z,100705.30
2022-10-30T04:21:01.789Z,100695.45
2022-10-30T04:23:32.823Z,100692.63
2022-10-30T04:26:04.311Z,100689.58
2022-10-30T04:28:35.153Z,100684.98
2022-10-30T04:31:07.437Z,100681.73
2022-10-30T04:33:38.452Z,100674.73
2022-10-30T04:36:10.982Z,100673.21
2022-10-30T04:38:40.233Z,100678.93
2022-10-30T04:41:11.903Z,100692.81
2022-10-30T04:43:52.752Z,100698.96
2022-10-30T04:46:23.523Z,100693.02
2022-10-30T04:48:54.858Z,100686.80
2022-10-30T04:51:26.161Z,100681.30
2022-10-30T04:53:58.722Z,100681.23
2022-10-30T04:56:30.179Z,100684.61
2022-10-30T04:59:02.116Z,100686.05
2022-10-30T05:01:32.911Z,100680.34
2022-10-30T05:04:04.888Z,100674.20
2022-10-30T05:06:36.043Z,100672.98
2022-10-30T05:09:06.815Z,100669.37
2022-10-30T05:11:42.635Z,100670.73
2022-10-30T05:14:13.391Z,100672.23
2022-10-30T05:16:44.048Z,100668.70
2022-10-30T05:19:14.851Z,100673.38
2022-10-30T05:21:50.090Z,100674.84
2022-10-30T05:24:21.107Z,100676.23
2022-10-30T05:26:53.292Z,100680.73
2022-10-30T05:29:23.993Z,100678.10
2022-10-30T05:31:54.770Z,100677.27
2022-10-30T05:34:46.760Z,100680.84
2022-10-30T05:37:19.268Z,100678.80
2022-10-30T05:39:50.072Z,100681.64
2022-10-30T05:42:29.747Z,100682.76
2022-10-30T05:45:02.820Z,100680.19
2022-10-30T05:47:35.588Z,100678.42
2022-10-30T05:50:07.723Z,100680.71
2022-10-30T05:52:39.552Z,100680.42
2022-10-30T05:55:12.651Z,100684.90
2022-10-30T05:58:04.051Z,100682.20
2022-10-30T06:00:36.627Z,100676.82
2022-10-30T06:03:09.098Z,100676.84
2022-10-30T06:05:38.294Z,100674.61
2022-10-30T06:08:10.720Z,100675.92
2022-10-30T06:10:41.510Z,100677.83
2022-10-30T06:13:16.790Z,100674.94
2022-10-30T06:16:19.623Z,100673.96
2022-10-30T06:19:19.390Z,100675.75
2022-10-30T06:21:54.814Z,100674.02
2022-10-30T06:24:30.644Z,100677.75
2022-10-30T06:27:22.358Z,100684.78
2022-10-30T06:29:54.971Z,100684.77
2022-10-30T06:32:25.699Z,100682.13
2022-10-30T06:34:56.613Z,100684.31
2022-10-30T06:37:29.081Z,100689.80
2022-10-30T06:40:00.514Z,100690.14
2022-10-30T06:42:53.344Z,100706.01
2022-10-30T06:45:34.054Z,100703.70
2022-10-30T06:48:05.588Z,100711.02
2022-10-30T06:50:41.533Z,100710.16
2022-10-30T06:53:12.368Z,100715.00
2022-10-30T06:55:43.225Z,100715.38
2022-10-30T06:58:27.104Z,100715.44
2022-10-30T07:01:10.001Z,100719.67
2022-10-30T07:03:40.696Z,100716.08
2022-10-30T07:06:11.847Z,100715.45
2022-10-30T07:08:42.686Z,100713.80
2022-10-30T07:11:14.217Z,100716.48
2022-10-30T07:14:04.210Z,100716.34
2022-10-30T07:16:58.899Z,100716.92
2022-10-30T07:19:30.142Z,100714.73
2022-10-30T07:22:01.876Z,100719.16
2022-10-30T07:24:33.310Z,100718.41
2022-10-30T07:27:21.667Z,100715.79
2022-10-30T07:30:08.082Z,100715.48
2022-10-30T07:33:00.749Z,100705.52
2022-10-30T07:35:51.740Z,100719.02
2022-10-30T07:38:41.590Z,100720.27
2022-10-30T07:41:30.852Z,100714.99
2022-10-30T07:44:37.249Z,100724.88
2022-10-30T07:47:30.920Z,100720.30
2022-10-30T07:50:12.595Z,100716.03
2022-10-30T07:52:43.582Z,100725.27
2022-10-30T07:55:14.709Z,100729.82
2022-10-30T07:57:45.598Z,100727.42
2022-10-30T08:00:34.920Z,100720.11
2022-10-30T08:03:21.959Z,100718.39
2022-10-30T08:05:59.677Z,100712.63
2022-10-30T08:08:40.485Z,100712.63
2022-10-30T08:11:43.277Z,100714.11
2022-10-30T08:14:14.012Z,100715.64
2022-10-30T08:16:44.922Z,100708.37
2022-10-30T08:19:15.612Z,100711.34
2022-10-30T08:21:46.419Z,100704.98
2022-10-30T08:24:21.356Z,100707.48
2022-10-30T08:26:55.466Z,100708.27
2022-10-30T08:29:26.700Z,100706.61
2022-10-30T08:31:57.768Z,100706.02
2022-10-30T08:34:31.636Z,100707.20
2022-10-30T08:37:08.015Z,100713.23
2022-10-30T08:39:39.086Z,100705.62
2022-10-30T08:42:30.012Z,100706.83
2022-10-30T08:45:01.234Z,100701.19
2022-10-30T08:47:57.381Z,100695.85
2022-10-30T08:50:28.825Z,100701.04
2022-10-30T08:53:03.839Z,100697.86
2022-10-30T08:55:36.011Z,100699.88
2022-10-30T08:58:08.267Z,100704.83
2022-10-30T09:00:39.001Z,100706.38
2022-10-30T09:03:12.325Z,100695.06
2022-10-30T09:06:15.494Z,100689.42
2022-10-30T09:09:04.949Z,100690.76
2022-10-30T09:11:44.401Z,100684.03
2022-10-30T09:14:15.506Z,100684.45
2022-10-30T09:16:46.347Z,100682.09
2022-10-30T09:19:19.138Z,100679.80
2022-10-30T09:21:50.574Z,100677.08
2022-10-30T09:24:21.858Z,100693.30
2022-10-30T09:26:52.994Z,100693.88
2022-10-30T09:29:31.689Z,100687.33
2022-10-30T09:32:10.443Z,100687.55
2022-10-30T09:34:55.307Z,100689.01
2022-10-30T09:37:30.162Z,100690.23
2022-10-30T09:40:04.669Z,100693.89
2022-10-30T09:42:47.150Z,100692.34
2022-10-30T09:45:35.273Z,100690.52
2022-10-30T09:48:38.569Z,100694.55
2022-10-30T09:51:36.335Z,100700.00
2022-10-30T09:54:16.397Z,100697.39
2022-10-30T09:57:01.196Z,100700.92
2022-10-30T09:59:44.375Z,100698.05
2022-10-30T10:02:30.888Z,100705.21
2022-10-30T10:05:07.129Z,100703.17
2022-10-30T10:08:09.104Z,100699.76
2022-10-30T10:11:04.539Z,100701.31
2022-10-30T10:13:40.115Z,100707.83
2022-10-30T10:16:17.168Z,100700.80
2022-10-30T10:18:49.626Z,100696.08
2022-10-30T10:21:27.479Z,100695.56
2022-10-30T10:24:01.313Z,100695.73
2022-10-30T10:26:45.367Z,100697.83
2022-10-30T10:29:28.071Z,100697.93
2022-10-30T10:32:17.911Z,100694.05
2022-10-30T10:35:05.988Z,100685.36
2022-10-30T10:37:45.169Z,100685.63
2022-10-30T10:40:29.563Z,100683.79
2022-10-30T10:43:11.306Z,100687.90
2022-10-30T10:45:50.967Z,100691.70
2022-10-30T10:48:54.409Z,100686.16
2022-10-30T10:51:30.378Z,100687.98
2022-10-30T10:54:05.013Z,100686.69
2022-10-30T10:56:39.383Z,100677.14
2022-10-30T10:59:21.423Z,100676.29
2022-10-30T11:01:59.551Z,100677.23
2022-10-30T11:04:33.806Z,100677.77
2022-10-30T11:07:22.233Z,100679.06
2022-10-30T11:09:55.423Z,100675.93
2022-10-30T11:12:30.954Z,100677.00
2022-10-30T11:15:17.023Z,100676.86
2022-10-30T11:17:57.470Z,100668.02
2022-10-30T11:20:37.345Z,100670.98
2022-10-30T11:23:35.390Z,100662.73
2022-10-30T11:26:06.656Z,100659.86
2022-10-30T11:28:49.943Z,100656.61
2022-10-30T11:31:24.072Z,100654.50
2022-10-30T11:33:55.246Z,100657.69
2022-10-30T11:36:27.682Z,100655.77
2022-10-30T11:39:10.423Z,100651.89
2022-10-30T11:41:42.049Z,100655.58
2022-10-30T11:44:14.042Z,100655.04
2022-10-30T11:46:45.012Z,100653.04
2022-10-30T11:49:34.794Z,100644.91
2022-10-30T11:52:07.629Z,100646.48
2022-10-30T11:54:44.856Z,100647.83
2022-10-30T11:57:37.108Z,100646.83
2022-10-30T12:00:16.043Z,100646.83
2022-10-30T12:02:51.518Z,100647.54
2022-10-30T12:05:38.689Z,100642.02
2022-10-30T12:08:22.412Z,100643.07
2022-10-30T12:11:02.885Z,100639.66
2022-10-30T12:13:40.530Z,100640.63
2022-10-30T12:16:20.681Z,100635.95
2022-10-30T12:19:02.577Z,100639.00
2022-10-30T12:21:39.026Z,100638.64
2022-10-30T12:24:18.330Z,100636.23
2022-10-30T12:26:54.263Z,100635.41
2022-10-30T12:29:47.921Z,100635.58
2022-10-30T12:32:23.031Z,100634.49
2022-10-30T12:35:01.449Z,100632.80
2022-10-30T12:37:38.559Z,100629.91
2022-10-30T12:40:17.509Z,100625.23
2022-10-30T12:42:56.572Z,100625.69
2022-10-30T12:45:31.984Z,100624.88
2022-10-30T12:48:09.905Z,100621.02
2022-10-30T12:50:48.303Z,100624.63
2022-10-30T12:53:30.455Z,100618.84
2022-10-30T12:56:06.125Z,100619.11
2022-10-30T12:58:42.941Z,100617.82
2022-10-30T13:01:26.625Z,100619.72
2022-10-30T13:04:05.351Z,100618.41
2022-10-30T13:06:43.611Z,100615.96
2022-10-30T13:09:20.500Z,100614.33
2022-10-30T13:11:59.054Z,100611.92
2022-10-30T13:14:39.860Z,100613.98
2022-10-30T13:17:14.352Z,100611.39
2022-10-30T13:19:47.695Z,100611.96
2022-10-30T13:22:25.672Z,100611.88
2022-10-30T13:25:04.264Z,100606.48
2022-10-30T13:27:43.768Z,100610.39
2022-10-30T13:30:18.802Z,100608.80
2022-10-30T13:33:02.922Z,100608.98
2022-10-30T13:35:42.323Z,100607.10
2022-10-30T13:38:34.045Z,100601.33
2022-10-30T13:41:13.050Z,100602.28
2022-10-30T13:43:50.257Z,100597.61
2022-10-30T13:46:35.493Z,100592.55
2022-10-30T13:49:22.118Z,100590.51
2022-10-30T13:52:02.656Z,100592.44
2022-10-30T13:54:38.589Z,100593.86
2022-10-30T13:57:19.041Z,100597.67
2022-10-30T14:00:02.305Z,100600.00
2022-10-30T14:03:13.717Z,100597.58
2022-10-30T14:05:50.772Z,100601.32
2022-10-30T14:11:09.531Z,100599.67
2022-10-30T14:13:57.331Z,100601.16
2022-10-30T14:16:44.781Z,100596.63
2022-10-30T14:19:16.929Z,100603.30
2022-10-30T14:21:52.025Z,100603.96
2022-10-30T14:27:11.260Z,100603.45
2022-10-30T14:29:54.653Z,100604.69
2022-10-30T14:32:42.018Z,100606.63
2022-10-30T14:35:33.222Z,100604.41
2022-10-30T14:38:36.940Z,100608.39
2022-10-30T14:41:31.625Z,100608.73
2022-10-30T14:44:53.225Z,100608.88
2022-10-30T14:47:46.816Z,100613.25
2022-10-30T14:50:34.256Z,100614.14
2022-10-30T14:53:31.867Z,100612.73
2022-10-30T14:56:09.810Z,100610.98
2022-10-30T14:58:41.595Z,100613.42
2022-10-30T15:01:34.785Z,100612.41
2022-10-30T15:04:19.255Z,100612.85
2022-10-30T15:07:04.212Z,100611.68
2022-10-30T15:09:47.745Z,100612.87
2022-10-30T15:12:43.701Z,100613.72
2022-10-30T15:15:18.604Z,100610.00
2022-10-30T15:17:51.797Z,100610.39
2022-10-30T15:20:25.095Z,100612.26
2022-10-30T15:22:58.726Z,100613.08
2022-10-30T15:25:34.698Z,100618.73
2022-10-30T15:28:07.359Z,100619.85
2022-10-30T15:30:40.555Z,100622.63
2022-10-30T15:33:23.450Z,100623.08
2022-10-30T15:35:54.142Z,100624.15
2022-10-30T15:38:24.965Z,100628.45
2022-10-30T15:41:00.285Z,100625.17
2022-10-30T15:43:33.633Z,100632.66
2022-10-30T15:46:09.986Z,100628.58
2022-10-30T15:48:46.917Z,100629.27
2022-10-30T15:51:19.877Z,100628.64
2022-10-30T15:53:53.690Z,100626.16
2022-10-30T15:56:28.469Z,100632.10
2022-10-30T15:59:02.731Z,100635.56
2022-10-30T16:01:38.683Z,100634.02
2022-10-30T16:04:18.320Z,100630.98
2022-10-30T16:06:54.546Z,100633.90
2022-10-30T16:09:26.431Z,100631.38
2022-10-30T16:12:00.818Z,100633.28
2022-10-30T16:14:33.717Z,100633.91
2022-10-30T16:17:05.633Z,100635.70
2022-10-30T16:19:42.918Z,100637.97
2022-10-30T16:22:19.228Z,100635.27
2022-10-30T16:24:50.369Z,100640.29
2022-10-30T16:27:23.257Z,100638.77
2022-10-30T16:29:58.111Z,100639.92
2022-10-30T16:32:31.007Z,100647.11
2022-10-30T16:35:04.570Z,100635.80
2022-10-30T16:37:39.328Z,100643.20
2022-10-30T16:40:16.384Z,100644.13
2022-10-30T16:42:54.810Z,100643.27
2022-10-30T16:45:52.386Z,100643.57
2022-10-30T16:48:28.454Z,100641.27
2022-10-30T16:51:06.384Z,100634.91
2022-10-30T16:53:37.281Z,100646.02
2022-10-30T16:56:21.504Z,100644.70
2022-10-30T16:58:53.116Z,100648.30
2022-10-30T17:01:28.333Z,100646.00
2022-10-30T17:04:00.332Z,100647.29
2022-10-30T17:06:39.892Z,100651.64
2022-10-30T17:09:21.667Z,100649.50
2022-10-30T17:12:11.728Z,100647.40
2022-10-30T17:14:50.267Z,100644.42
2022-10-30T17:17:33.008Z,100639.32
2022-10-30T17:20:07.749Z,100647.76
2022-10-30T17:22:39.437Z,100652.00
2022-10-30T17:25:36.983Z,100645.58
2022-10-30T17:28:08.687Z,100651.64
2022-10-30T17:30:42.563Z,100655.59
2022-10-30T17:33:36.300Z,100655.45
2022-10-30T17:36:10.027Z,100659.94
2022-10-30T17:38:40.779Z,100663.56
2022-10-30T17:41:16.889Z,100665.17
2022-10-30T17:43:56.756Z,100667.58
2022-10-30T17:46:28.306Z,100665.16
2022-10-30T17:49:00.182Z,100664.73
2022-10-30T17:51:32.461Z,100666.42
2022-10-30T17:54:01.737Z,100669.05
2022-10-30T17:56:35.197Z,100672.77
2022-10-30T17:59:06.132Z,100672.98
2022-10-30T18:01:36.972Z,100670.60
2022-10-30T18:04:20.879Z,100668.45
2022-10-30T18:06:52.474Z,100669.85
2022-10-30T18:09:23.208Z,100670.19
2022-10-30T18:11:54.050Z,100668.33
2022-10-30T18:14:25.035Z,100668.72
2022-10-30T18:16:56.419Z,100666.23
2022-10-30T18:19:27.461Z,100669.55
2022-10-30T18:21:58.398Z,100671.19
2022-10-30T18:24:29.109Z,100674.84
2022-10-30T18:27:00.190Z,100673.57
2022-10-30T18:29:31.295Z,100679.49
2022-10-30T18:32:08.398Z,100677.99
2022-10-30T18:34:42.647Z,100682.77
2022-10-30T18:37:13.841Z,100678.56
2022-10-30T18:39:45.578Z,100680.56
2022-10-30T18:42:16.867Z,100677.02
2022-10-30T18:44:48.436Z,100681.17
2022-10-30T18:47:20.398Z,100677.62
2022-10-30T18:49:51.708Z,100677.14
2022-10-30T18:52:22.896Z,100676.73
2022-10-30T18:54:55.579Z,100678.70
2022-10-30T18:57:25.321Z,100682.74
2022-10-30T18:59:56.292Z,100681.24
2022-10-30T19:02:27.395Z,100678.16
2022-10-30T19:04:58.306Z,100679.25
2022-10-30T19:07:29.202Z,100677.27
2022-10-30T19:10:01.124Z,100677.50
2022-10-30T19:12:33.516Z,100677.42
2022-10-30T19:15:16.264Z,100677.98
2022-10-30T19:17:47.325Z,100678.96
2022-10-30T19:20:20.202Z,100675.54
2022-10-30T19:22:50.978Z,100678.52
2022-10-30T19:25:24.529Z,100678.12
2022-10-30T19:27:55.874Z,100676.53
2022-10-30T19:30:26.812Z,100678.23
2022-10-30T19:32:57.514Z,100682.54
2022-10-30T19:35:28.284Z,100684.52
2022-10-30T19:37:59.364Z,100684.94
2022-10-30T19:40:34.079Z,100689.09
2022-10-30T19:43:05.226Z,100690.46
2022-10-30T19:45:36.630Z,100690.46
2022-10-30T19:48:17.691Z,100689.17
2022-10-30T19:50:51.777Z,100694.42
2022-10-30T19:53:22.711Z,100691.41
2022-10-30T19:55:53.609Z,100695.61
2022-10-30T19:58:25.992Z,100696.30
2022-10-30T20:00:57.151Z,100698.52
2022-10-30T20:03:28.174Z,100699.55
2022-10-30T20:05:58.829Z,100695.23
2022-10-30T20:08:29.597Z,100698.20
2022-10-30T20:11:00.936Z,100695.86
2022-10-30T20:13:33.493Z,100696.58
2022-10-30T20:16:07.117Z,100699.88
2022-10-30T20:18:38.866Z,100700.54
2022-10-30T20:21:11.430Z,100698.53
2022-10-30T20:23:40.891Z,100702.43
2022-10-30T20:26:30.501Z,100704.49
2022-10-30T20:29:03.718Z,100706.47
2022-10-30T20:31:34.706Z,100706.48
2022-10-30T20:34:05.432Z,100708.02
2022-10-30T20:36:36.039Z,100712.80
2022-10-30T20:39:06.925Z,100705.66
2022-10-30T20:41:39.794Z,100707.35
2022-10-30T20:44:12.624Z,100711.30
2022-10-30T20:46:43.660Z,100711.66
2022-10-30T20:49:17.936Z,100712.80
2022-10-30T20:51:49.635Z,100708.84
2022-10-30T20:54:20.895Z,100714.05
2022-10-30T20:56:51.812Z,100716.35
2022-10-30T20:59:22.751Z,100714.55
2022-10-30T21:01:53.782Z,100714.09
2022-10-30T21:04:25.034Z,100723.17
2022-10-30T21:06:55.714Z,100720.06
2022-10-30T21:09:26.447Z,100722.19
2022-10-30T21:11:57.278Z,100726.05
2022-10-30T21:14:27.923Z,100724.15
2022-10-30T21:16:58.884Z,100726.35
2022-10-30T21:19:29.988Z,100729.54
2022-10-30T21:22:00.951Z,100731.10
2022-10-30T21:24:31.810Z,100730.44
2022-10-30T21:27:02.746Z,100729.48
2022-10-30T21:29:35.153Z,100727.61
2022-10-30T21:32:07.895Z,100724.95
2022-10-30T21:34:38.747Z,100726.29
2022-10-30T21:37:09.866Z,100732.24
2022-10-30T21:39:40.475Z,100733.52
2022-10-30T21:42:11.451Z,100733.48
2022-10-30T21:44:42.190Z,100738.60
2022-10-30T21:47:14.673Z,100737.14
2022-10-30T21:49:43.838Z,100737.80
2022-10-30T21:52:14.798Z,100741.00
2022-10-30T21:54:45.608Z,100737.63
2022-10-30T21:57:16.494Z,100741.75
2022-10-30T21:59:47.365Z,100740.08
2022-10-30T22:02:19.413Z,100740.35
2022-10-30T22:04:51.120Z,100741.54
2022-10-30T22:07:22.378Z,100742.46
2022-10-30T22:09:53.715Z,100741.85
2022-10-30T22:12:24.511Z,100737.33
2022-10-30T22:14:55.384Z,100738.64
2022-10-30T22:17:29.457Z,100740.73
2022-10-30T22:20:03.401Z,100742.47
2022-10-30T22:22:34.315Z,100737.81
2022-10-30T22:25:05.257Z,100740.54
2022-10-30T22:27:36.187Z,100740.77
2022-10-30T22:30:08.831Z,100741.64
2022-10-30T22:32:39.701Z,100740.87
2022-10-30T22:35:11.370Z,100740.48
2022-10-30T22:37:42.089Z,100738.40
2022-10-30T22:40:14.078Z,100742.77
2022-10-30T22:42:45.080Z,100744.58
2022-10-30T22:45:15.823Z,100744.84
2022-10-30T22:47:46.461Z,100748.43
2022-10-30T22:50:17.673Z,100743.20
2022-10-30T22:52:48.555Z,100751.17
2022-10-30T22:55:19.678Z,100751.64
2022-10-30T22:57:55.646Z,100752.33
2022-10-30T23:00:29.146Z,100754.08
2022-10-30T23:03:00.253Z,100757.83
2022-10-30T23:05:31.352Z,100756.23
2022-10-30T23:08:02.272Z,100761.64
2022-10-30T23:10:32.971Z,100762.30
2022-10-30T23:13:03.736Z,100765.36
2022-10-30T23:15:34.361Z,100766.86
2022-10-30T23:18:05.445Z,100764.71
2022-10-30T23:20:36.182Z,100770.75
2022-10-30T23:23:08.066Z,100771.00
2022-10-30T23:25:39.267Z,100772.54
2022-10-30T23:28:11.498Z,100771.47
2022-10-30T23:30:45.346Z,100774.06
2022-10-30T23:33:16.051Z,100771.95
2022-10-30T23:35:47.030Z,100775.60
2022-10-30T23:38:17.843Z,100778.60
2022-10-30T23:40:50.029Z,100777.86
2022-10-30T23:43:21.446Z,100779.95
2022-10-30T23:45:52.372Z,100776.77
2022-10-30T23:48:23.141Z,100776.73
2022-10-30T23:50:54.126Z,100776.55
2022-10-30T23:53:24.932Z,100776.55
2022-10-30T23:55:56.277Z,100774.66
2022-10-30T23:58:27.414Z,100777.33
